Time,TemperatureF,DewpointF,PressureIn,WindDirection,WindDirectionDegrees,WindSpeedMPH,WindSpeedGustMPH,Humidity,HourlyPrecipIn,Conditions,Clouds,dailyrainin,SoftwareType,DateUTC
2013-01-15 00:00:00,32.8,20.8,30.52,NNW,338,0.0,-999.0,61,0.00,,,0.00,Wunderground v.1.15,2013-01-15 08:00:00,
2013-01-15 00:05:00,32.8,20.8,30.52,NNW,338,0.0,-999.0,61,0.00,,,0.00,Wunderground v.1.15,2013-01-15 08:05:00,
2013-01-15 00:10:00,32.8,20.8,30.52,NNW,338,0.0,-999.0,61,0.00,,,0.00,Wunderground v.1.15,2013-01-15 08:10:00,
2013-01-15 00:15:00,33.1,20.7,30.51,N/A,-737280,0.0,-999.0,60,0.00,,,0.00,Wunderground v.1.15,2013-01-15 08:15:00,
2013-01-15 00:20:00,33.1,20.7,30.51,N/A,-737280,0.0,-999.0,60,0.00,,,0.00,Wunderground v.1.15,2013-01-15 08:20:00,
2013-01-15 00:25:00,33.3,20.1,30.52,NNW,338,0.0,-999.0,58,0.00,,,0.00,Wunderground v.1.15,2013-01-15 08:25:00,
2013-01-15 00:30:00,33.3,20.1,30.52,NNW,338,0.0,-999.0,58,0.00,,,0.00,Wunderground v.1.15,2013-01-15 08:30:00,
2013-01-15 00:35:00,33.6,20.4,30.52,NNW,338,0.0,-999.0,58,0.00,,,0.00,Wunderground v.1.15,2013-01-15 08:35:00,
2013-01-15 00:40:00,33.6,20.4,30.52,NNW,338,0.0,-999.0,58,0.00,,,0.00,Wunderground v.1.15,2013-01-15 08:40:00,
2013-01-15 00:45:00,33.4,20.6,30.52,N/A,-737280,0.0,-999.0,59,0.00,,,0.00,Wunderground v.1.15,2013-01-15 08:45:00,
2013-01-15 00:50:00,33.4,20.6,30.52,N/A,-737280,0.0,-999.0,59,0.00,,,0.00,Wunderground v.1.15,2013-01-15 08:50:00,
2013-01-15 00:55:00,33.0,20.2,30.52,NNW,338,0.0,-999.0,59,0.00,,,0.00,Wunderground v.1.15,2013-01-15 08:55:00,
2013-01-15 01:00:00,33.0,20.2,30.52,NNW,338,0.0,-999.0,59,0.00,,,0.00,Wunderground v.1.15,2013-01-15 09:00:00,
2013-01-15 01:05:00,32.8,20.0,30.52,NNW,338,0.0,-999.0,59,0.00,,,0.00,Wunderground v.1.15,2013-01-15 09:05:00,
2013-01-15 01:10:00,32.8,20.0,30.52,NNW,338,0.0,-999.0,59,0.00,,,0.00,Wunderground v.1.15,2013-01-15 09:10:00,
2013-01-15 01:15:00,32.9,20.1,30.52,N/A,-737280,0.0,-999.0,59,0.00,,,0.00,Wunderground v.1.15,2013-01-15 09:15:00,
2013-01-15 01:20:00,32.9,20.1,30.52,N/A,-737280,0.0,-999.0,59,0.00,,,0.00,Wunderground v.1.15,2013-01-15 09:20:00,
2013-01-15 01:25:00,32.5,19.7,30.53,N/A,-737280,0.0,-999.0,59,0.00,,,0.00,Wunderground v.1.15,2013-01-15 09:25:00,
2013-01-15 01:30:00,32.5,19.7,30.53,N/A,-737280,0.0,-999.0,59,0.00,,,0.00,Wunderground v.1.15,2013-01-15 09:30:00,
2013-01-15 01:35:00,32.6,19.4,30.53,N/A,-737280,0.0,-999.0,58,0.00,,,0.00,Wunderground v.1.15,2013-01-15 09:35:00,
2013-01-15 01:40:00,32.6,19.4,30.53,N/A,-737280,0.0,-999.0,58,0.00,,,0.00,Wunderground v.1.15,2013-01-15 09:40:00,
2013-01-15 01:45:00,32.9,22.0,30.53,NNW,338,0.0,-999.0,64,0.00,,,0.00,Wunderground v.1.15,2013-01-15 09:45:00,
2013-01-15 01:50:00,32.9,22.0,30.53,NNW,338,0.0,-999.0,64,0.00,,,0.00,Wunderground v.1.15,2013-01-15 09:50:00,
2013-01-15 01:55:00,31.6,21.5,30.53,NNW,338,1.0,-999.0,66,0.00,,,0.00,Wunderground v.1.15,2013-01-15 09:55:00,
2013-01-15 02:00:00,31.6,21.5,30.53,NNW,338,1.0,-999.0,66,0.00,,,0.00,Wunderground v.1.15,2013-01-15 10:00:00,
2013-01-15 02:05:00,31.4,19.9,30.54,NNW,338,0.0,-999.0,62,0.00,,,0.00,Wunderground v.1.15,2013-01-15 10:05:00,
2013-01-15 02:10:00,31.4,19.9,30.54,NNW,338,0.0,-999.0,62,0.00,,,0.00,Wunderground v.1.15,2013-01-15 10:10:00,
2013-01-15 02:15:00,32.2,19.5,30.54,NNW,338,0.0,-999.0,59,0.00,,,0.00,Wunderground v.1.15,2013-01-15 10:15:00,
2013-01-15 02:20:00,32.2,19.5,30.54,NNW,338,0.0,-999.0,59,0.00,,,0.00,Wunderground v.1.15,2013-01-15 10:20:00,
2013-01-15 02:25:00,32.5,20.5,30.54,NNW,338,1.0,-999.0,61,0.00,,,0.00,Wunderground v.1.15,2013-01-15 10:25:00,
2013-01-15 02:30:00,32.5,20.5,30.54,NNW,338,1.0,-999.0,61,0.00,,,0.00,Wunderground v.1.15,2013-01-15 10:30:00,
2013-01-15 02:35:00,32.1,21.3,30.54,NNW,338,0.0,-999.0,64,0.00,,,0.00,Wunderground v.1.15,2013-01-15 10:35:00,
2013-01-15 02:40:00,32.1,21.3,30.54,NNW,338,0.0,-999.0,64,0.00,,,0.00,Wunderground v.1.15,2013-01-15 10:40:00,
2013-01-15 02:45:00,31.5,20.0,30.54,N/A,-737280,0.0,-999.0,62,0.00,,,0.00,Wunderground v.1.15,2013-01-15 10:45:00,
2013-01-15 02:50:00,31.5,20.0,30.54,N/A,-737280,0.0,-999.0,62,0.00,,,0.00,Wunderground v.1.15,2013-01-15 10:50:00,
2013-01-15 02:55:00,31.5,20.0,30.55,NNW,338,0.0,-999.0,62,0.00,,,0.00,Wunderground v.1.15,2013-01-15 10:55:00,
2013-01-15 03:00:00,31.5,20.0,30.55,NNW,338,0.0,-999.0,62,0.00,,,0.00,Wunderground v.1.15,2013-01-15 11:00:00,
2013-01-15 03:05:00,31.3,19.4,30.54,NNW,338,0.0,-999.0,61,0.00,,,0.00,Wunderground v.1.15,2013-01-15 11:05:00,
2013-01-15 03:10:00,31.3,19.4,30.54,NNW,338,0.0,-999.0,61,0.00,,,0.00,Wunderground v.1.15,2013-01-15 11:10:00,
2013-01-15 03:15:00,31.4,19.5,30.55,NNW,338,0.0,-999.0,61,0.00,,,0.00,Wunderground v.1.15,2013-01-15 11:15:00,
2013-01-15 03:20:00,31.4,19.5,30.55,NNW,338,0.0,-999.0,61,0.00,,,0.00,Wunderground v.1.15,2013-01-15 11:20:00,
2013-01-15 03:25:00,31.3,20.2,30.54,NNW,338,0.0,-999.0,63,0.00,,,0.00,Wunderground v.1.15,2013-01-15 11:25:00,
2013-01-15 03:30:00,31.3,20.2,30.54,NNW,338,0.0,-999.0,63,0.00,,,0.00,Wunderground v.1.15,2013-01-15 11:30:00,
2013-01-15 03:35:00,31.2,19.3,30.55,NNW,338,0.0,-999.0,61,0.00,,,0.00,Wunderground v.1.15,2013-01-15 11:35:00,
2013-01-15 03:40:00,31.2,19.3,30.55,NNW,338,0.0,-999.0,61,0.00,,,0.00,Wunderground v.1.15,2013-01-15 11:40:00,
2013-01-15 03:45:00,31.2,18.9,30.55,NNW,338,0.0,-999.0,60,0.00,,,0.00,Wunderground v.1.15,2013-01-15 11:45:00,
2013-01-15 03:50:00,31.2,18.9,30.55,NNW,338,0.0,-999.0,60,0.00,,,0.00,Wunderground v.1.15,2013-01-15 11:50:00,
2013-01-15 03:55:00,31.3,20.2,30.55,NNW,338,0.0,-999.0,63,0.00,,,0.00,Wunderground v.1.15,2013-01-15 11:55:00,
2013-01-15 04:00:00,31.3,20.2,30.55,NNW,338,0.0,-999.0,63,0.00,,,0.00,Wunderground v.1.15,2013-01-15 12:00:00,
2013-01-15 04:05:00,30.8,18.9,30.55,NNW,338,0.0,-999.0,61,0.00,,,0.00,Wunderground v.1.15,2013-01-15 12:05:00,
2013-01-15 04:10:00,30.8,18.9,30.55,NNW,338,0.0,-999.0,61,0.00,,,0.00,Wunderground v.1.15,2013-01-15 12:10:00,
2013-01-15 04:15:00,31.2,18.9,30.55,NNW,338,0.0,-999.0,60,0.00,,,0.00,Wunderground v.1.15,2013-01-15 12:15:00,
2013-01-15 04:20:00,31.2,18.9,30.55,NNW,338,0.0,-999.0,60,0.00,,,0.00,Wunderground v.1.15,2013-01-15 12:20:00,
2013-01-15 04:25:00,31.3,19.4,30.55,NNW,338,0.0,-999.0,61,0.00,,,0.00,Wunderground v.1.15,2013-01-15 12:25:00,
2013-01-15 04:30:00,31.3,19.4,30.55,NNW,338,0.0,-999.0,61,0.00,,,0.00,Wunderground v.1.15,2013-01-15 12:30:00,
2013-01-15 04:35:00,30.8,19.3,30.55,NNW,338,0.0,-999.0,62,0.00,,,0.00,Wunderground v.1.15,2013-01-15 12:35:00,
2013-01-15 04:40:00,30.8,19.3,30.55,NNW,338,0.0,-999.0,62,0.00,,,0.00,Wunderground v.1.15,2013-01-15 12:40:00,
2013-01-15 04:45:00,30.4,19.3,30.55,NNW,338,0.0,-999.0,63,0.00,,,0.00,Wunderground v.1.15,2013-01-15 12:45:00,
2013-01-15 04:50:00,30.4,19.3,30.55,NNW,338,0.0,-999.0,63,0.00,,,0.00,Wunderground v.1.15,2013-01-15 12:50:00,
2013-01-15 04:55:00,30.4,18.9,30.55,NNW,338,0.0,-999.0,62,0.00,,,0.00,Wunderground v.1.15,2013-01-15 12:55:00,
2013-01-15 05:00:00,30.4,18.9,30.55,NNW,338,0.0,-999.0,62,0.00,,,0.00,Wunderground v.1.15,2013-01-15 13:00:00,
2013-01-15 05:05:00,30.5,19.0,30.56,NNE,23,0.0,-999.0,62,0.00,,,0.00,Wunderground v.1.15,2013-01-15 13:05:00,
2013-01-15 05:10:00,30.5,19.0,30.56,NNE,23,0.0,-999.0,62,0.00,,,0.00,Wunderground v.1.15,2013-01-15 13:10:00,
2013-01-15 05:15:00,30.6,18.3,30.56,NNE,23,0.0,-999.0,60,0.00,,,0.00,Wunderground v.1.15,2013-01-15 13:15:00,
2013-01-15 05:20:00,30.6,18.3,30.56,NNE,23,0.0,-999.0,60,0.00,,,0.00,Wunderground v.1.15,2013-01-15 13:20:00,
2013-01-15 05:25:00,30.9,18.6,30.56,NNE,23,1.0,-999.0,60,0.00,,,0.00,Wunderground v.1.15,2013-01-15 13:25:00,
2013-01-15 05:30:00,30.9,18.6,30.56,NNE,23,1.0,-999.0,60,0.00,,,0.00,Wunderground v.1.15,2013-01-15 13:30:00,
2013-01-15 05:35:00,31.1,18.8,30.56,N/A,-737280,0.0,-999.0,60,0.00,,,0.00,Wunderground v.1.15,2013-01-15 13:35:00,
2013-01-15 05:40:00,31.1,18.8,30.56,N/A,-737280,0.0,-999.0,60,0.00,,,0.00,Wunderground v.1.15,2013-01-15 13:40:00,
2013-01-15 05:45:00,31.1,18.8,30.57,N/A,-737280,0.0,-999.0,60,0.00,,,0.00,Wunderground v.1.15,2013-01-15 13:45:00,
2013-01-15 05:50:00,31.1,18.8,30.57,N/A,-737280,0.0,-999.0,60,0.00,,,0.00,Wunderground v.1.15,2013-01-15 13:50:00,
2013-01-15 05:55:00,31.1,18.8,30.57,NNE,23,0.0,-999.0,60,0.00,,,0.00,Wunderground v.1.15,2013-01-15 13:55:00,
2013-01-15 06:00:00,31.1,18.8,30.57,NNE,23,0.0,-999.0,60,0.00,,,0.00,Wunderground v.1.15,2013-01-15 14:00:00,
2013-01-15 06:05:00,31.0,18.7,30.57,NNE,23,0.0,-999.0,60,0.00,,,0.00,Wunderground v.1.15,2013-01-15 14:05:00,
2013-01-15 06:10:00,31.0,18.7,30.57,NNE,23,0.0,-999.0,60,0.00,,,0.00,Wunderground v.1.15,2013-01-15 14:10:00,
2013-01-15 06:15:00,31.1,19.2,30.57,N/A,-737280,0.0,-999.0,61,0.00,,,0.00,Wunderground v.1.15,2013-01-15 14:15:00,
2013-01-15 06:20:00,31.1,19.2,30.57,N/A,-737280,0.0,-999.0,61,0.00,,,0.00,Wunderground v.1.15,2013-01-15 14:20:00,
2013-01-15 06:25:00,30.7,18.4,30.57,NNE,23,0.0,-999.0,60,0.00,,,0.00,Wunderground v.1.15,2013-01-15 14:25:00,
2013-01-15 06:30:00,30.7,18.4,30.57,NNE,23,0.0,-999.0,60,0.00,,,0.00,Wunderground v.1.15,2013-01-15 14:30:00,
2013-01-15 06:35:00,30.3,18.5,30.57,NNE,23,1.0,-999.0,61,0.00,,,0.00,Wunderground v.1.15,2013-01-15 14:35:00,
2013-01-15 06:40:00,30.3,18.5,30.57,NNE,23,1.0,-999.0,61,0.00,,,0.00,Wunderground v.1.15,2013-01-15 14:40:00,
2013-01-15 06:45:00,30.0,18.2,30.58,NNE,23,1.0,-999.0,61,0.00,,,0.00,Wunderground v.1.15,2013-01-15 14:45:00,
2013-01-15 06:50:00,30.0,18.2,30.58,NNE,23,1.0,-999.0,61,0.00,,,0.00,Wunderground v.1.15,2013-01-15 14:50:00,
2013-01-15 06:55:00,30.0,18.9,30.58,NNE,23,0.0,-999.0,63,0.00,,,0.00,Wunderground v.1.15,2013-01-15 14:55:00,
2013-01-15 07:00:00,30.0,18.9,30.58,NNE,23,0.0,-999.0,63,0.00,,,0.00,Wunderground v.1.15,2013-01-15 15:00:00,
2013-01-15 07:05:00,30.1,18.6,30.58,NNE,23,0.0,-999.0,62,0.00,,,0.00,Wunderground v.1.15,2013-01-15 15:05:00,
2013-01-15 07:10:00,30.1,18.6,30.58,NNE,23,0.0,-999.0,62,0.00,,,0.00,Wunderground v.1.15,2013-01-15 15:10:00,
2013-01-15 07:15:00,30.3,19.2,30.59,N/A,-737280,0.0,-999.0,63,0.00,,,0.00,Wunderground v.1.15,2013-01-15 15:15:00,
2013-01-15 07:20:00,30.3,19.2,30.59,N/A,-737280,0.0,-999.0,63,0.00,,,0.00,Wunderground v.1.15,2013-01-15 15:20:00,
2013-01-15 07:30:00,30.1,18.6,30.59,NNE,28,0.0,1.0,62,0.00,,,0.00,Wunderground v.1.15,2013-01-15 15:30:00,
2013-01-15 07:40:00,30.1,19.0,30.59,NNE,28,0.0,0.0,63,0.00,,,0.00,Wunderground v.1.15,2013-01-15 15:40:00,
2013-01-15 07:45:00,30.2,18.4,30.59,NNE,28,0.0,0.0,61,0.00,,,0.00,Wunderground v.1.15,2013-01-15 15:45:00,
2013-01-15 07:55:00,30.9,19.0,30.60,NNE,28,0.0,0.0,61,0.00,,,0.00,Wunderground v.1.15,2013-01-15 15:55:00,
2013-01-15 08:00:00,31.2,18.9,30.60,NNE,28,0.0,0.0,60,0.00,,,0.00,Wunderground v.1.15,2013-01-15 16:00:00,
2013-01-15 08:05:00,31.5,19.2,30.60,NNE,23,0.0,-999.0,60,0.00,,,0.00,Wunderground v.1.15,2013-01-15 16:05:00,
2013-01-15 08:10:00,31.6,19.3,30.60,NNE,28,0.0,0.0,60,0.00,,,0.00,Wunderground v.1.15,2013-01-15 16:10:00,
2013-01-15 08:15:00,31.9,19.2,30.60,NNE,28,0.0,0.0,59,0.00,,,0.00,Wunderground v.1.15,2013-01-15 16:15:00,
2013-01-15 08:20:00,32.1,19.8,30.60,NNE,28,0.0,0.0,60,0.00,,,0.00,Wunderground v.1.15,2013-01-15 16:20:00,
2013-01-15 08:25:00,32.5,19.3,30.60,NNE,28,0.0,1.0,58,0.00,,,0.00,Wunderground v.1.15,2013-01-15 16:25:00,
2013-01-15 08:30:00,32.6,19.4,30.60,NNE,23,0.0,-999.0,58,0.00,,,0.00,Wunderground v.1.15,2013-01-15 16:30:00,
2013-01-15 08:35:00,32.9,19.3,30.61,NNE,28,0.0,0.0,57,0.00,,,0.00,Wunderground v.1.15,2013-01-15 16:35:00,
2013-01-15 08:40:00,33.2,19.6,30.61,NNE,28,0.0,1.0,57,0.00,,,0.00,Wunderground v.1.15,2013-01-15 16:40:00,
2013-01-15 08:45:00,33.4,19.8,30.60,NNE,28,0.0,1.0,57,0.00,,,0.00,Wunderground v.1.15,2013-01-15 16:45:00,
2013-01-15 08:50:00,33.4,20.6,30.61,NNE,23,0.0,-999.0,59,0.00,,,0.00,Wunderground v.1.15,2013-01-15 16:50:00,
2013-01-15 08:55:00,33.8,21.4,30.61,NNE,28,0.0,0.0,60,0.00,,,0.00,Wunderground v.1.15,2013-01-15 16:55:00,
2013-01-15 09:00:00,33.4,21.0,30.61,NNE,23,0.0,-999.0,60,0.00,,,0.00,Wunderground v.1.15,2013-01-15 17:00:00,
2013-01-15 09:05:00,33.3,20.5,30.61,NNE,23,0.0,-999.0,59,0.00,,,0.00,Wunderground v.1.15,2013-01-15 17:05:00,
2013-01-15 09:10:00,33.3,20.5,30.61,NNE,23,0.0,-999.0,59,0.00,,,0.00,Wunderground v.1.15,2013-01-15 17:10:00,
2013-01-15 09:15:00,34.4,21.5,30.61,NNE,23,0.0,-999.0,59,0.00,,,0.00,Wunderground v.1.15,2013-01-15 17:15:00,
2013-01-15 09:20:00,34.4,21.5,30.61,NNE,23,0.0,-999.0,59,0.00,,,0.00,Wunderground v.1.15,2013-01-15 17:20:00,
2013-01-15 09:25:00,33.8,21.4,30.61,NNE,23,1.0,-999.0,60,0.00,,,0.00,Wunderground v.1.15,2013-01-15 17:25:00,
2013-01-15 09:30:00,33.8,21.4,30.61,NNE,23,1.0,-999.0,60,0.00,,,0.00,Wunderground v.1.15,2013-01-15 17:30:00,
2013-01-15 09:35:00,34.8,22.7,30.61,NNE,23,1.0,-999.0,61,0.00,,,0.00,Wunderground v.1.15,2013-01-15 17:35:00,
2013-01-15 09:40:00,34.8,22.7,30.61,NNE,23,1.0,-999.0,61,0.00,,,0.00,Wunderground v.1.15,2013-01-15 17:40:00,
2013-01-15 09:45:00,34.6,22.5,30.61,NNW,338,1.0,-999.0,61,0.00,,,0.00,Wunderground v.1.15,2013-01-15 17:45:00,
2013-01-15 09:50:00,34.6,22.5,30.61,NNW,338,1.0,-999.0,61,0.00,,,0.00,Wunderground v.1.15,2013-01-15 17:50:00,
2013-01-15 09:55:00,35.7,20.7,30.61,NNW,338,1.0,-999.0,54,0.00,,,0.00,Wunderground v.1.15,2013-01-15 17:55:00,
2013-01-15 10:00:00,35.7,20.7,30.61,NNW,338,1.0,-999.0,54,0.00,,,0.00,Wunderground v.1.15,2013-01-15 18:00:00,
2013-01-15 10:05:00,36.7,19.8,30.61,NW,315,2.0,-999.0,50,0.00,,,0.00,Wunderground v.1.15,2013-01-15 18:05:00,
2013-01-15 10:10:00,36.7,19.8,30.61,NW,315,2.0,-999.0,50,0.00,,,0.00,Wunderground v.1.15,2013-01-15 18:10:00,
2013-01-15 10:15:00,36.8,20.8,30.61,WNW,293,1.0,-999.0,52,0.00,,,0.00,Wunderground v.1.15,2013-01-15 18:15:00,
2013-01-15 10:20:00,36.8,20.8,30.61,WNW,293,1.0,-999.0,52,0.00,,,0.00,Wunderground v.1.15,2013-01-15 18:20:00,
2013-01-15 10:25:00,37.0,21.4,30.61,WNW,293,1.0,-999.0,53,0.00,,,0.00,Wunderground v.1.15,2013-01-15 18:25:00,
2013-01-15 10:30:00,37.0,21.4,30.61,WNW,293,1.0,-999.0,53,0.00,,,0.00,Wunderground v.1.15,2013-01-15 18:30:00,
2013-01-15 10:35:00,37.5,22.8,30.60,WNW,293,1.0,-999.0,55,0.00,,,0.00,Wunderground v.1.15,2013-01-15 18:35:00,
2013-01-15 10:40:00,37.5,22.8,30.60,WNW,293,1.0,-999.0,55,0.00,,,0.00,Wunderground v.1.15,2013-01-15 18:40:00,
2013-01-15 10:45:00,37.8,23.1,30.60,NNW,338,1.0,-999.0,55,0.00,,,0.00,Wunderground v.1.15,2013-01-15 18:45:00,
2013-01-15 10:50:00,37.8,23.1,30.60,NNW,338,1.0,-999.0,55,0.00,,,0.00,Wunderground v.1.15,2013-01-15 18:50:00,
2013-01-15 10:55:00,38.8,24.0,30.59,NNE,23,1.0,-999.0,55,0.00,,,0.00,Wunderground v.1.15,2013-01-15 18:55:00,
2013-01-15 11:00:00,38.8,24.0,30.59,NNE,23,1.0,-999.0,55,0.00,,,0.00,Wunderground v.1.15,2013-01-15 19:00:00,
2013-01-15 11:05:00,39.7,23.5,30.59,NNE,23,1.0,-999.0,52,0.00,,,0.00,Wunderground v.1.15,2013-01-15 19:05:00,
2013-01-15 11:10:00,39.7,23.5,30.59,NNE,23,1.0,-999.0,52,0.00,,,0.00,Wunderground v.1.15,2013-01-15 19:10:00,
2013-01-15 11:15:00,40.2,23.0,30.58,North,0,1.0,-999.0,50,0.00,,,0.00,Wunderground v.1.15,2013-01-15 19:15:00,
2013-01-15 11:20:00,40.2,23.0,30.58,North,0,1.0,-999.0,50,0.00,,,0.00,Wunderground v.1.15,2013-01-15 19:20:00,
2013-01-15 11:25:00,40.6,23.9,30.58,NNE,23,1.0,-999.0,51,0.00,,,0.00,Wunderground v.1.15,2013-01-15 19:25:00,
2013-01-15 11:30:00,40.6,23.9,30.58,NNE,23,1.0,-999.0,51,0.00,,,0.00,Wunderground v.1.15,2013-01-15 19:30:00,
2013-01-15 11:35:00,41.3,25.0,30.57,NNE,23,1.0,-999.0,52,0.00,,,0.00,Wunderground v.1.15,2013-01-15 19:35:00,
2013-01-15 11:40:00,41.3,25.0,30.57,NNE,23,1.0,-999.0,52,0.00,,,0.00,Wunderground v.1.15,2013-01-15 19:40:00,
2013-01-15 11:45:00,42.0,24.7,30.57,NNW,338,1.0,-999.0,50,0.00,,,0.00,Wunderground v.1.15,2013-01-15 19:45:00,
2013-01-15 11:50:00,42.0,24.7,30.57,NNW,338,1.0,-999.0,50,0.00,,,0.00,Wunderground v.1.15,2013-01-15 19:50:00,
2013-01-15 11:55:00,42.5,24.2,30.57,WNW,293,1.0,-999.0,48,0.00,,,0.00,Wunderground v.1.15,2013-01-15 19:55:00,
2013-01-15 12:00:00,42.5,24.2,30.57,WNW,293,1.0,-999.0,48,0.00,,,0.00,Wunderground v.1.15,2013-01-15 20:00:00,
2013-01-15 12:05:00,42.7,23.8,30.56,WNW,293,1.0,-999.0,47,0.00,,,0.00,Wunderground v.1.15,2013-01-15 20:05:00,
2013-01-15 12:10:00,42.7,23.8,30.56,WNW,293,1.0,-999.0,47,0.00,,,0.00,Wunderground v.1.15,2013-01-15 20:10:00,
2013-01-15 12:15:00,42.8,24.4,30.56,WNW,293,1.0,-999.0,48,0.00,,,0.00,Wunderground v.1.15,2013-01-15 20:15:00,
2013-01-15 12:20:00,42.8,24.4,30.56,WNW,293,1.0,-999.0,48,0.00,,,0.00,Wunderground v.1.15,2013-01-15 20:20:00,
2013-01-15 12:25:00,43.4,24.5,30.56,WNW,293,1.0,-999.0,47,0.00,,,0.00,Wunderground v.1.15,2013-01-15 20:25:00,
2013-01-15 12:30:00,43.4,24.5,30.56,WNW,293,1.0,-999.0,47,0.00,,,0.00,Wunderground v.1.15,2013-01-15 20:30:00,
2013-01-15 12:35:00,43.8,24.9,30.55,WNW,293,1.0,-999.0,47,0.00,,,0.00,Wunderground v.1.15,2013-01-15 20:35:00,
2013-01-15 12:40:00,43.8,24.9,30.55,WNW,293,1.0,-999.0,47,0.00,,,0.00,Wunderground v.1.15,2013-01-15 20:40:00,
2013-01-15 12:45:00,43.0,25.1,30.55,West,270,1.0,-999.0,49,0.00,,,0.00,Wunderground v.1.15,2013-01-15 20:45:00,
2013-01-15 12:50:00,43.0,25.1,30.55,West,270,1.0,-999.0,49,0.00,,,0.00,Wunderground v.1.15,2013-01-15 20:50:00,
2013-01-15 12:55:00,43.0,25.1,30.55,WNW,293,1.0,-999.0,49,0.00,,,0.00,Wunderground v.1.15,2013-01-15 20:55:00,
2013-01-15 13:00:00,43.0,25.1,30.55,WNW,293,1.0,-999.0,49,0.00,,,0.00,Wunderground v.1.15,2013-01-15 21:00:00,
2013-01-15 13:05:00,43.3,24.9,30.55,WNW,293,1.0,-999.0,48,0.00,,,0.00,Wunderground v.1.15,2013-01-15 21:05:00,
2013-01-15 13:10:00,43.3,24.9,30.55,WNW,293,1.0,-999.0,48,0.00,,,0.00,Wunderground v.1.15,2013-01-15 21:10:00,
2013-01-15 13:15:00,43.6,25.7,30.55,South,180,0.0,-999.0,49,0.00,,,0.00,Wunderground v.1.15,2013-01-15 21:15:00,
2013-01-15 13:20:00,43.6,25.7,30.55,South,180,0.0,-999.0,49,0.00,,,0.00,Wunderground v.1.15,2013-01-15 21:20:00,
2013-01-15 13:25:00,43.4,25.5,30.55,West,270,1.0,-999.0,49,0.00,,,0.00,Wunderground v.1.15,2013-01-15 21:25:00,
2013-01-15 13:30:00,43.4,25.5,30.55,West,270,1.0,-999.0,49,0.00,,,0.00,Wunderground v.1.15,2013-01-15 21:30:00,
2013-01-15 13:35:00,43.2,25.3,30.55,West,270,0.0,-999.0,49,0.00,,,0.00,Wunderground v.1.15,2013-01-15 21:35:00,
2013-01-15 13:40:00,43.2,25.3,30.55,West,270,0.0,-999.0,49,0.00,,,0.00,Wunderground v.1.15,2013-01-15 21:40:00,
2013-01-15 13:45:00,43.3,25.9,30.55,West,270,1.0,-999.0,50,0.00,,,0.00,Wunderground v.1.15,2013-01-15 21:45:00,
2013-01-15 13:50:00,43.3,25.9,30.55,West,270,1.0,-999.0,50,0.00,,,0.00,Wunderground v.1.15,2013-01-15 21:50:00,
2013-01-15 13:55:00,43.5,25.6,30.55,WNW,293,1.0,-999.0,49,0.00,,,0.00,Wunderground v.1.15,2013-01-15 21:55:00,
2013-01-15 14:00:00,43.5,25.6,30.55,WNW,293,1.0,-999.0,49,0.00,,,0.00,Wunderground v.1.15,2013-01-15 22:00:00,
2013-01-15 14:05:00,43.7,26.3,30.55,ESE,113,1.0,-999.0,50,0.00,,,0.00,Wunderground v.1.15,2013-01-15 22:05:00,
2013-01-15 14:10:00,43.7,26.3,30.55,ESE,113,1.0,-999.0,50,0.00,,,0.00,Wunderground v.1.15,2013-01-15 22:10:00,
2013-01-15 14:15:00,44.0,25.5,30.55,SE,135,1.0,-999.0,48,0.00,,,0.00,Wunderground v.1.15,2013-01-15 22:15:00,
2013-01-15 14:20:00,44.0,25.5,30.55,SE,135,1.0,-999.0,48,0.00,,,0.00,Wunderground v.1.15,2013-01-15 22:20:00,
2013-01-15 14:25:00,44.0,25.5,30.55,ESE,113,1.0,-999.0,48,0.00,,,0.00,Wunderground v.1.15,2013-01-15 22:25:00,
2013-01-15 14:30:00,44.0,25.5,30.55,ESE,113,1.0,-999.0,48,0.00,,,0.00,Wunderground v.1.15,2013-01-15 22:30:00,
2013-01-15 14:35:00,44.2,25.7,30.55,SSW,203,1.0,-999.0,48,0.00,,,0.00,Wunderground v.1.15,2013-01-15 22:35:00,
2013-01-15 14:40:00,44.2,25.7,30.55,SSW,203,1.0,-999.0,48,0.00,,,0.00,Wunderground v.1.15,2013-01-15 22:40:00,
2013-01-15 14:45:00,44.6,26.1,30.54,SSW,203,1.0,-999.0,48,0.00,,,0.00,Wunderground v.1.15,2013-01-15 22:45:00,
2013-01-15 14:50:00,44.6,26.1,30.54,SSW,203,1.0,-999.0,48,0.00,,,0.00,Wunderground v.1.15,2013-01-15 22:50:00,
2013-01-15 14:55:00,45.0,26.5,30.55,ESE,113,1.0,-999.0,48,0.00,,,0.00,Wunderground v.1.15,2013-01-15 22:55:00,
2013-01-15 15:00:00,45.0,26.5,30.55,ESE,113,1.0,-999.0,48,0.00,,,0.00,Wunderground v.1.15,2013-01-15 23:00:00,
2013-01-15 15:05:00,45.2,27.2,30.55,ESE,113,0.0,-999.0,49,0.00,,,0.00,Wunderground v.1.15,2013-01-15 23:05:00,
2013-01-15 15:10:00,45.2,27.2,30.55,ESE,113,0.0,-999.0,49,0.00,,,0.00,Wunderground v.1.15,2013-01-15 23:10:00,
2013-01-15 15:15:00,45.1,27.6,30.55,SW,225,1.0,-999.0,50,0.00,,,0.00,Wunderground v.1.15,2013-01-15 23:15:00,
2013-01-15 15:20:00,45.1,27.6,30.55,SW,225,1.0,-999.0,50,0.00,,,0.00,Wunderground v.1.15,2013-01-15 23:20:00,
2013-01-15 15:25:00,44.6,27.6,30.55,SW,225,0.0,-999.0,51,0.00,,,0.00,Wunderground v.1.15,2013-01-15 23:25:00,
2013-01-15 15:30:00,44.6,27.6,30.55,SW,225,0.0,-999.0,51,0.00,,,0.00,Wunderground v.1.15,2013-01-15 23:30:00,
2013-01-15 15:35:00,44.4,27.9,30.55,SW,225,1.0,-999.0,52,0.00,,,0.00,Wunderground v.1.15,2013-01-15 23:35:00,
2013-01-15 15:40:00,44.4,27.9,30.55,SW,225,1.0,-999.0,52,0.00,,,0.00,Wunderground v.1.15,2013-01-15 23:40:00,
2013-01-15 15:45:00,44.1,28.5,30.55,SW,225,0.0,-999.0,54,0.00,,,0.00,Wunderground v.1.15,2013-01-15 23:45:00,
2013-01-15 15:50:00,44.1,28.5,30.55,SW,225,0.0,-999.0,54,0.00,,,0.00,Wunderground v.1.15,2013-01-15 23:50:00,
2013-01-15 15:55:00,43.5,28.8,30.56,SW,225,0.0,-999.0,56,0.00,,,0.00,Wunderground v.1.15,2013-01-15 23:55:00,
2013-01-15 16:00:00,43.5,28.8,30.56,SW,225,0.0,-999.0,56,0.00,,,0.00,Wunderground v.1.15,2013-01-16 00:00:00,
2013-01-15 16:05:00,42.9,29.1,30.56,SW,225,1.0,-999.0,58,0.00,,,0.00,Wunderground v.1.15,2013-01-16 00:05:00,
2013-01-15 16:10:00,42.9,29.1,30.56,SW,225,1.0,-999.0,58,0.00,,,0.00,Wunderground v.1.15,2013-01-16 00:10:00,
2013-01-15 16:15:00,42.3,29.0,30.56,SW,225,0.0,-999.0,59,0.00,,,0.00,Wunderground v.1.15,2013-01-16 00:15:00,
2013-01-15 16:20:00,42.3,29.0,30.56,SW,225,0.0,-999.0,59,0.00,,,0.00,Wunderground v.1.15,2013-01-16 00:20:00,
2013-01-15 16:25:00,41.8,29.3,30.57,SW,225,0.0,-999.0,61,0.00,,,0.00,Wunderground v.1.15,2013-01-16 00:25:00,
2013-01-15 16:30:00,41.8,29.3,30.57,SW,225,0.0,-999.0,61,0.00,,,0.00,Wunderground v.1.15,2013-01-16 00:30:00,
2013-01-15 16:35:00,41.3,28.9,30.57,SW,225,0.0,-999.0,61,0.00,,,0.00,Wunderground v.1.15,2013-01-16 00:35:00,
2013-01-15 16:40:00,41.3,28.9,30.57,SW,225,0.0,-999.0,61,0.00,,,0.00,Wunderground v.1.15,2013-01-16 00:40:00,
2013-01-15 16:45:00,40.9,28.9,30.56,N/A,-737280,0.0,-999.0,62,0.00,,,0.00,Wunderground v.1.15,2013-01-16 00:45:00,
2013-01-15 16:50:00,40.9,28.9,30.56,N/A,-737280,0.0,-999.0,62,0.00,,,0.00,Wunderground v.1.15,2013-01-16 00:50:00,
2013-01-15 16:55:00,40.5,28.9,30.57,SW,225,0.0,-999.0,63,0.00,,,0.00,Wunderground v.1.15,2013-01-16 00:55:00,
2013-01-15 17:00:00,40.5,28.9,30.57,SW,225,0.0,-999.0,63,0.00,,,0.00,Wunderground v.1.15,2013-01-16 01:00:00,
2013-01-15 17:05:00,40.0,28.8,30.56,SW,225,0.0,-999.0,64,0.00,,,0.00,Wunderground v.1.15,2013-01-16 01:05:00,
2013-01-15 17:10:00,40.0,28.8,30.56,SW,225,0.0,-999.0,64,0.00,,,0.00,Wunderground v.1.15,2013-01-16 01:10:00,
2013-01-15 17:15:00,39.5,28.7,30.56,SW,225,0.0,-999.0,65,0.00,,,0.00,Wunderground v.1.15,2013-01-16 01:15:00,
2013-01-15 17:20:00,39.5,28.7,30.56,SW,225,0.0,-999.0,65,0.00,,,0.00,Wunderground v.1.15,2013-01-16 01:20:00,
2013-01-15 17:25:00,39.0,28.6,30.56,N/A,-737280,0.0,-999.0,66,0.00,,,0.00,Wunderground v.1.15,2013-01-16 01:25:00,
2013-01-15 17:30:00,39.0,28.6,30.56,N/A,-737280,0.0,-999.0,66,0.00,,,0.00,Wunderground v.1.15,2013-01-16 01:30:00,
2013-01-15 17:35:00,38.5,28.9,30.56,N/A,-737280,0.0,-999.0,68,0.00,,,0.00,Wunderground v.1.15,2013-01-16 01:35:00,
2013-01-15 17:40:00,38.5,28.9,30.56,N/A,-737280,0.0,-999.0,68,0.00,,,0.00,Wunderground v.1.15,2013-01-16 01:40:00,
2013-01-15 17:45:00,38.0,28.7,30.56,N/A,-737280,0.0,-999.0,69,0.00,,,0.00,Wunderground v.1.15,2013-01-16 01:45:00,
2013-01-15 17:50:00,38.0,28.7,30.56,N/A,-737280,0.0,-999.0,69,0.00,,,0.00,Wunderground v.1.15,2013-01-16 01:50:00,
2013-01-15 17:55:00,37.6,28.3,30.56,N/A,-737280,0.0,-999.0,69,0.00,,,0.00,Wunderground v.1.15,2013-01-16 01:55:00,
2013-01-15 18:00:00,37.6,28.3,30.56,N/A,-737280,0.0,-999.0,69,0.00,,,0.00,Wunderground v.1.15,2013-01-16 02:00:00,
2013-01-15 18:05:00,37.4,28.5,30.56,SW,225,0.0,-999.0,70,0.00,,,0.00,Wunderground v.1.15,2013-01-16 02:05:00,
2013-01-15 18:10:00,37.4,28.5,30.56,SW,225,0.0,-999.0,70,0.00,,,0.00,Wunderground v.1.15,2013-01-16 02:10:00,
2013-01-15 18:15:00,37.2,28.3,30.56,N/A,-737280,0.0,-999.0,70,0.00,,,0.00,Wunderground v.1.15,2013-01-16 02:15:00,
2013-01-15 18:20:00,37.2,28.3,30.56,N/A,-737280,0.0,-999.0,70,0.00,,,0.00,Wunderground v.1.15,2013-01-16 02:20:00,
2013-01-15 18:25:00,37.0,28.5,30.56,SW,225,0.0,-999.0,71,0.00,,,0.00,Wunderground v.1.15,2013-01-16 02:25:00,
2013-01-15 18:30:00,37.0,28.5,30.56,SW,225,0.0,-999.0,71,0.00,,,0.00,Wunderground v.1.15,2013-01-16 02:30:00,
2013-01-15 18:35:00,37.0,28.5,30.56,SW,225,0.0,-999.0,71,0.00,,,0.00,Wunderground v.1.15,2013-01-16 02:35:00,
2013-01-15 18:40:00,37.0,28.5,30.56,SW,225,0.0,-999.0,71,0.00,,,0.00,Wunderground v.1.15,2013-01-16 02:40:00,
2013-01-15 18:45:00,36.9,28.4,30.56,SW,225,0.0,-999.0,71,0.00,,,0.00,Wunderground v.1.15,2013-01-16 02:45:00,
2013-01-15 18:50:00,36.9,28.4,30.56,SW,225,0.0,-999.0,71,0.00,,,0.00,Wunderground v.1.15,2013-01-16 02:50:00,
2013-01-15 18:55:00,37.1,28.2,30.56,SW,225,1.0,-999.0,70,0.00,,,0.00,Wunderground v.1.15,2013-01-16 02:55:00,
2013-01-15 19:00:00,37.1,28.2,30.56,SW,225,1.0,-999.0,70,0.00,,,0.00,Wunderground v.1.15,2013-01-16 03:00:00,
2013-01-15 19:05:00,37.1,28.9,30.56,SW,225,0.0,-999.0,72,0.00,,,0.00,Wunderground v.1.15,2013-01-16 03:05:00,
2013-01-15 19:10:00,37.1,28.9,30.56,SW,225,0.0,-999.0,72,0.00,,,0.00,Wunderground v.1.15,2013-01-16 03:10:00,
2013-01-15 19:15:00,36.0,28.2,30.56,N/A,-737280,0.0,-999.0,73,0.00,,,0.00,Wunderground v.1.15,2013-01-16 03:15:00,
2013-01-15 19:20:00,36.0,28.2,30.56,N/A,-737280,0.0,-999.0,73,0.00,,,0.00,Wunderground v.1.15,2013-01-16 03:20:00,
2013-01-15 19:25:00,36.0,28.2,30.56,N/A,-737280,0.0,-999.0,73,0.00,,,0.00,Wunderground v.1.15,2013-01-16 03:25:00,
2013-01-15 19:30:00,36.0,28.2,30.56,N/A,-737280,0.0,-999.0,73,0.00,,,0.00,Wunderground v.1.15,2013-01-16 03:30:00,
2013-01-15 19:35:00,36.2,28.4,30.56,N/A,-737280,0.0,-999.0,73,0.00,,,0.00,Wunderground v.1.15,2013-01-16 03:35:00,
2013-01-15 19:40:00,36.2,28.4,30.56,N/A,-737280,0.0,-999.0,73,0.00,,,0.00,Wunderground v.1.15,2013-01-16 03:40:00,
2013-01-15 19:45:00,36.0,28.2,30.56,SW,225,0.0,-999.0,73,0.00,,,0.00,Wunderground v.1.15,2013-01-16 03:45:00,
2013-01-15 19:50:00,36.0,28.2,30.56,SW,225,0.0,-999.0,73,0.00,,,0.00,Wunderground v.1.15,2013-01-16 03:50:00,
2013-01-15 19:55:00,35.8,28.0,30.56,N/A,-737280,0.0,-999.0,73,0.00,,,0.00,Wunderground v.1.15,2013-01-16 03:55:00,
2013-01-15 20:00:00,35.8,28.0,30.56,N/A,-737280,0.0,-999.0,73,0.00,,,0.00,Wunderground v.1.15,2013-01-16 04:00:00,
2013-01-15 20:05:00,36.0,28.2,30.56,SW,225,0.0,-999.0,73,0.00,,,0.00,Wunderground v.1.15,2013-01-16 04:05:00,
2013-01-15 20:10:00,36.0,28.2,30.56,SW,225,0.0,-999.0,73,0.00,,,0.00,Wunderground v.1.15,2013-01-16 04:10:00,
2013-01-15 20:15:00,36.0,28.2,30.56,SW,225,0.0,-999.0,73,0.00,,,0.00,Wunderground v.1.15,2013-01-16 04:15:00,
2013-01-15 20:20:00,36.0,28.2,30.56,SW,225,0.0,-999.0,73,0.00,,,0.00,Wunderground v.1.15,2013-01-16 04:20:00,
2013-01-15 20:25:00,35.9,28.4,30.56,SW,225,0.0,-999.0,74,0.00,,,0.00,Wunderground v.1.15,2013-01-16 04:25:00,
2013-01-15 20:30:00,35.9,28.4,30.56,SW,225,0.0,-999.0,74,0.00,,,0.00,Wunderground v.1.15,2013-01-16 04:30:00,
2013-01-15 20:35:00,36.0,28.5,30.56,N/A,-737280,0.0,-999.0,74,0.00,,,0.00,Wunderground v.1.15,2013-01-16 04:35:00,
2013-01-15 20:40:00,36.0,28.5,30.56,N/A,-737280,0.0,-999.0,74,0.00,,,0.00,Wunderground v.1.15,2013-01-16 04:40:00,
2013-01-15 20:45:00,36.0,28.5,30.56,SW,225,0.0,-999.0,74,0.00,,,0.00,Wunderground v.1.15,2013-01-16 04:45:00,
2013-01-15 20:50:00,36.0,28.5,30.56,SW,225,0.0,-999.0,74,0.00,,,0.00,Wunderground v.1.15,2013-01-16 04:50:00,
2013-01-15 20:55:00,36.0,28.5,30.56,SW,225,0.0,-999.0,74,0.00,,,0.00,Wunderground v.1.15,2013-01-16 04:55:00,
2013-01-15 21:00:00,36.0,28.5,30.56,SW,225,0.0,-999.0,74,0.00,,,0.00,Wunderground v.1.15,2013-01-16 05:00:00,
2013-01-15 21:05:00,34.2,28.4,30.56,WSW,248,1.0,-999.0,79,0.00,,,0.00,Wunderground v.1.15,2013-01-16 05:05:00,
2013-01-15 21:10:00,34.2,28.4,30.56,WSW,248,1.0,-999.0,79,0.00,,,0.00,Wunderground v.1.15,2013-01-16 05:10:00,
2013-01-15 21:15:00,33.9,27.4,30.56,N/A,-737280,0.0,-999.0,77,0.00,,,0.00,Wunderground v.1.15,2013-01-16 05:15:00,
2013-01-15 21:20:00,33.9,27.4,30.56,N/A,-737280,0.0,-999.0,77,0.00,,,0.00,Wunderground v.1.15,2013-01-16 05:20:00,
2013-01-15 21:25:00,35.0,27.9,30.56,N/A,-737280,0.0,-999.0,75,0.00,,,0.00,Wunderground v.1.15,2013-01-16 05:25:00,
2013-01-15 21:30:00,35.0,27.9,30.56,N/A,-737280,0.0,-999.0,75,0.00,,,0.00,Wunderground v.1.15,2013-01-16 05:30:00,
2013-01-15 21:35:00,35.4,28.3,30.56,N/A,-737280,0.0,-999.0,75,0.00,,,0.00,Wunderground v.1.15,2013-01-16 05:35:00,
2013-01-15 21:40:00,35.4,28.3,30.56,N/A,-737280,0.0,-999.0,75,0.00,,,0.00,Wunderground v.1.15,2013-01-16 05:40:00,
2013-01-15 21:45:00,35.7,28.2,30.56,SW,225,1.0,-999.0,74,0.00,,,0.00,Wunderground v.1.15,2013-01-16 05:45:00,
2013-01-15 21:50:00,35.7,28.2,30.56,SW,225,1.0,-999.0,74,0.00,,,0.00,Wunderground v.1.15,2013-01-16 05:50:00,
2013-01-15 21:55:00,36.4,28.6,30.56,SW,225,0.0,-999.0,73,0.00,,,0.00,Wunderground v.1.15,2013-01-16 05:55:00,
2013-01-15 22:00:00,36.4,28.6,30.56,SW,225,0.0,-999.0,73,0.00,,,0.00,Wunderground v.1.15,2013-01-16 06:00:00,
2013-01-15 22:05:00,37.0,28.5,30.56,N/A,-737280,0.0,-999.0,71,0.00,,,0.00,Wunderground v.1.15,2013-01-16 06:05:00,
2013-01-15 22:10:00,37.0,28.5,30.56,N/A,-737280,0.0,-999.0,71,0.00,,,0.00,Wunderground v.1.15,2013-01-16 06:10:00,
2013-01-15 22:15:00,37.5,28.6,30.56,SW,225,0.0,-999.0,70,0.00,,,0.00,Wunderground v.1.15,2013-01-16 06:15:00,
2013-01-15 22:20:00,37.5,28.6,30.56,SW,225,0.0,-999.0,70,0.00,,,0.00,Wunderground v.1.15,2013-01-16 06:20:00,
2013-01-15 22:25:00,37.3,28.8,30.56,SW,225,1.0,-999.0,71,0.00,,,0.00,Wunderground v.1.15,2013-01-16 06:25:00,
2013-01-15 22:30:00,37.3,28.8,30.56,SW,225,1.0,-999.0,71,0.00,,,0.00,Wunderground v.1.15,2013-01-16 06:30:00,
2013-01-15 22:35:00,37.6,28.3,30.56,N/A,-737280,0.0,-999.0,69,0.00,,,0.00,Wunderground v.1.15,2013-01-16 06:35:00,
2013-01-15 22:40:00,37.6,28.3,30.56,N/A,-737280,0.0,-999.0,69,0.00,,,0.00,Wunderground v.1.15,2013-01-16 06:40:00,
2013-01-15 22:45:00,38.1,28.5,30.56,N/A,-737280,0.0,-999.0,68,0.00,,,0.00,Wunderground v.1.15,2013-01-16 06:45:00,
2013-01-15 22:50:00,38.1,28.5,30.56,N/A,-737280,0.0,-999.0,68,0.00,,,0.00,Wunderground v.1.15,2013-01-16 06:50:00,
2013-01-15 22:55:00,38.3,27.9,30.57,N/A,-737280,0.0,-999.0,66,0.00,,,0.00,Wunderground v.1.15,2013-01-16 06:55:00,
2013-01-15 23:00:00,38.3,27.9,30.57,N/A,-737280,0.0,-999.0,66,0.00,,,0.00,Wunderground v.1.15,2013-01-16 07:00:00,
2013-01-15 23:05:00,39.2,28.0,30.57,N/A,-737280,0.0,-999.0,64,0.00,,,0.00,Wunderground v.1.15,2013-01-16 07:05:00,
2013-01-15 23:10:00,39.2,28.0,30.57,N/A,-737280,0.0,-999.0,64,0.00,,,0.00,Wunderground v.1.15,2013-01-16 07:10:00,
2013-01-15 23:15:00,39.5,28.3,30.57,N/A,-737280,0.0,-999.0,64,0.00,,,0.00,Wunderground v.1.15,2013-01-16 07:15:00,
2013-01-15 23:20:00,39.5,28.3,30.57,N/A,-737280,0.0,-999.0,64,0.00,,,0.00,Wunderground v.1.15,2013-01-16 07:20:00,
2013-01-15 23:25:00,39.3,28.5,30.57,N/A,-737280,0.0,-999.0,65,0.00,,,0.00,Wunderground v.1.15,2013-01-16 07:25:00,
2013-01-15 23:30:00,39.3,28.5,30.57,N/A,-737280,0.0,-999.0,65,0.00,,,0.00,Wunderground v.1.15,2013-01-16 07:30:00,
2013-01-15 23:35:00,38.8,28.0,30.57,SW,225,0.0,-999.0,65,0.00,,,0.00,Wunderground v.1.15,2013-01-16 07:35:00,
2013-01-15 23:40:00,38.8,28.0,30.57,SW,225,0.0,-999.0,65,0.00,,,0.00,Wunderground v.1.15,2013-01-16 07:40:00,
2013-01-15 23:45:00,38.6,27.8,30.56,SW,225,0.0,-999.0,65,0.00,,,0.00,Wunderground v.1.15,2013-01-16 07:45:00,
2013-01-15 23:50:00,38.6,27.8,30.56,SW,225,0.0,-999.0,65,0.00,,,0.00,Wunderground v.1.15,2013-01-16 07:50:00,
2013-01-15 23:55:00,38.9,27.8,30.56,SW,225,1.0,-999.0,64,0.00,,,0.00,Wunderground v.1.15,2013-01-16 07:55:00,